Time;durP1;ratioP1;P1;durP2;ratioP2;P2;SDS_P1;SDS_P2;PMS_P1;PMS_P2;Temp;Humidity;BMP_temperature;BMP_pressure;BME280_temperature;BME280_humidity;BME280_pressure;Samples;Min_cycle;Max_cycle;Signal;HPM_P1;HPM_P2
2023/03/07 00:01:34;;;;;;;;;;;;;;;23.17;32.18;94345.28;5055862;28;1583;-71
2023/03/07 00:03:59;;;;;;;;;;;;;;;23.18;32.03;94346.09;5063715;28;1296;-71
2023/03/07 00:06:24;;;;;;;;;;;;;;;23.21;32.04;94348.28;5074347;28;1960;-69
2023/03/07 00:08:51;;;;;;;;;;;;;;;23.23;32.23;94349.69;5073955;28;833;-72
2023/03/07 00:11:16;;;;;;;;;;;;;;;23.24;32.33;94350.50;5073943;28;893;-70
2023/03/07 00:13:42;;;;;;;;;;;;;;;23.19;32.20;94347.72;5051125;28;1161;-70
2023/03/07 00:16:09;;;;;;;;;;;;;;;23.18;32.43;94335.41;5068575;28;1228;-70
2023/03/07 00:18:35;;;;;;;;;;;;;;;23.18;32.30;94336.19;5073799;28;1354;-70
2023/03/07 00:21:01;;;;;;;;;;;;;;;23.16;32.65;94348.19;5055845;28;1404;-72
2023/03/07 00:23:27;;;;;;;;;;;;;;;23.19;32.49;94342.34;5055070;28;1335;-72
2023/03/07 00:26:05;;;;;;;;;;;;;;;23.17;32.46;94329.25;5063712;28;1902;-72
2023/03/07 00:28:30;;;;;;;;;;;;;;;23.19;32.41;94329.78;5073636;28;931;-72
2023/03/07 00:31:00;;;;;;;;;;;;;;;23.20;32.52;94325.28;5073592;28;912;-72
2023/03/07 00:33:25;;;;;;;;;;;;;;;23.19;32.71;94327.13;5055569;28;1350;-72
2023/03/07 00:36:14;;;;;;;;;;;;;;;23.18;32.75;94308.63;5054905;28;1424;-72
2023/03/07 00:38:40;;;;;;;;;;;;;;;23.19;32.80;94304.91;5056230;28;1119;-72
2023/03/07 00:41:07;;;;;;;;;;;;;;;23.20;32.75;94306.53;5073313;28;1224;-72
2023/03/07 00:43:33;;;;;;;;;;;;;;;23.18;32.97;94296.06;5054979;28;1354;-72
2023/03/07 00:45:59;;;;;;;;;;;;;;;23.19;32.92;94291.53;5055261;28;1902;-72
2023/03/07 00:48:24;;;;;;;;;;;;;;;23.19;32.95;94300.34;5063634;28;1031;-73
2023/03/07 00:50:50;;;;;;;;;;;;;;;23.20;33.27;94311.91;5073038;28;1155;-72
2023/03/07 00:53:16;;;;;;;;;;;;;;;23.21;33.23;94297.44;5055325;28;1339;-72
2023/03/07 00:55:41;;;;;;;;;;;;;;;23.20;33.20;94283.28;5055352;28;1286;-72
2023/03/07 00:58:07;;;;;;;;;;;;;;;23.22;33.31;94289.16;5055318;28;1302;-72
2023/03/07 01:00:32;;;;;;;;;;;;;;;23.23;33.42;94288.13;5063335;28;1132;-67
2023/03/07 01:03:00;;;;;;;;;;;;;;;23.27;33.48;94293.81;5088050;22;1995;-76
2023/03/07 01:05:26;;;;;;;;;;;;;;;23.28;33.60;94290.06;4996768;28;1206;-77
2023/03/07 01:07:51;;;;;;;;;;;;;;;23.29;33.77;94295.22;5014507;28;1910;-77
2023/03/07 01:10:16;;;;;;;;;;;;;;;23.30;33.55;94296.81;4994959;28;1269;-76
2023/03/07 01:12:42;;;;;;;;;;;;;;;23.28;33.74;94292.75;5006080;28;1130;-77
2023/03/07 01:15:08;;;;;;;;;;;;;;;23.30;33.94;94296.00;5014724;28;872;-76
2023/03/07 01:17:33;;;;;;;;;;;;;;;23.27;34.17;94289.28;4996159;28;1456;-75
2023/03/07 01:19:59;;;;;;;;;;;;;;;23.28;33.97;94288.25;5013751;28;1032;-75
2023/03/07 01:22:24;;;;;;;;;;;;;;;23.29;33.84;94295.22;5006123;28;1116;-75
2023/03/07 01:24:49;;;;;;;;;;;;;;;23.30;34.04;94301.38;5013941;28;1103;-75
2023/03/07 01:27:15;;;;;;;;;;;;;;;23.29;34.18;94305.91;5015244;28;1961;-74
2023/03/07 01:29:40;;;;;;;;;;;;;;;23.28;33.99;94304.28;5015026;28;961;-74
2023/03/07 01:32:05;;;;;;;;;;;;;;;23.28;34.33;94300.78;5014709;28;822;-75
2023/03/07 01:34:30;;;;;;;;;;;;;;;23.30;34.41;94291.47;5004734;28;1048;-74
2023/03/07 01:36:56;;;;;;;;;;;;;;;23.29;34.36;94297.88;5014956;28;918;-76
2023/03/07 01:39:21;;;;;;;;;;;;;;;23.30;34.41;94279.94;5014832;28;838;-74
2023/03/07 01:41:47;;;;;;;;;;;;;;;23.28;34.46;94264.16;5015100;28;921;-74
2023/03/07 01:44:18;;;;;;;;;;;;;;;23.29;34.45;94268.44;5015018;28;819;-77
2023/03/07 01:46:46;;;;;;;;;;;;;;;23.29;34.54;94263.09;4987699;28;1906;-75
2023/03/07 01:49:11;;;;;;;;;;;;;;;23.32;34.51;94281.34;5014423;28;811;-74
2023/03/07 01:51:37;;;;;;;;;;;;;;;23.30;34.78;94285.31;4996766;28;1235;-73
2023/03/07 01:54:05;;;;;;;;;;;;;;;23.27;34.71;94278.56;5014380;28;937;-74
2023/03/07 01:56:30;;;;;;;;;;;;;;;23.26;34.76;94281.50;4991651;28;1336;-73
2023/03/07 01:58:56;;;;;;;;;;;;;;;23.26;34.63;94278.81;5017714;28;1065;-74
2023/03/07 02:01:21;;;;;;;;;;;;;;;23.28;34.79;94279.38;5000773;28;1249;-74
2023/03/07 02:03:47;;;;;;;;;;;;;;;23.30;34.64;94274.59;5018176;28;1277;-75
2023/03/07 02:06:12;;;;;;;;;;;;;;;23.31;34.75;94281.59;5018584;28;1965;-74
2023/03/07 02:08:39;;;;;;;;;;;;;;;23.30;34.75;94282.63;4990852;28;1383;-74
2023/03/07 02:11:07;;;;;;;;;;;;;;;23.33;34.80;94279.47;5000566;28;1173;-72
2023/03/07 02:13:34;;;;;;;;;;;;;;;23.33;34.82;94272.25;4999790;28;1252;-72
2023/03/07 02:16:01;;;;;;;;;;;;;;;23.33;34.83;94276.78;5017493;28;890;-73
2023/03/07 02:18:29;;;;;;;;;;;;;;;23.32;34.73;94272.50;5015653;28;855;-73
2023/03/07 02:20:59;;;;;;;;;;;;;;;23.33;34.70;94266.09;5011019;28;1006;-71
2023/03/07 02:23:24;;;;;;;;;;;;;;;23.32;35.02;94253.78;5017475;28;874;-73
2023/03/07 02:25:58;;;;;;;;;;;;;;;23.35;35.00;94267.47;5017636;28;1964;-74
2023/03/07 02:28:23;;;;;;;;;;;;;;;23.33;35.13;94274.13;5017524;28;878;-74
2023/03/07 02:30:56;;;;;;;;;;;;;;;23.33;35.05;94268.75;5008923;28;1031;-76
2023/03/07 02:33:23;;;;;;;;;;;;;;;23.34;35.12;94249.00;4999908;28;1335;-75
2023/03/07 02:35:52;;;;;;;;;;;;;;;23.33;35.17;94250.84;5017446;28;920;-74
2023/03/07 02:38:17;;;;;;;;;;;;;;;23.32;35.30;94253.78;5017474;28;827;-75
2023/03/07 02:40:43;;;;;;;;;;;;;;;23.32;34.98;94265.28;5017471;28;848;-75
2023/03/07 02:43:09;;;;;;;;;;;;;;;23.34;35.16;94265.06;4989726;28;1584;-75
2023/03/07 02:45:34;;;;;;;;;;;;;;;23.32;35.34;94259.94;4999639;28;1345;-75
2023/03/07 02:47:59;;;;;;;;;;;;;;;23.33;35.36;94255.38;5018671;28;1969;-75
2023/03/07 02:50:25;;;;;;;;;;;;;;;23.35;35.28;94255.97;5017608;28;886;-75
2023/03/07 02:52:50;;;;;;;;;;;;;;;23.32;35.47;94269.84;5012492;28;916;-74
2023/03/07 02:55:15;;;;;;;;;;;;;;;23.33;35.28;94279.47;4994344;28;1415;-75
2023/03/07 02:57:41;;;;;;;;;;;;;;;23.34;35.51;94275.75;5016904;28;885;-75
2023/03/07 03:00:07;;;;;;;;;;;;;;;23.32;35.37;94267.97;4999119;28;1294;-74
2023/03/07 03:02:32;;;;;;;;;;;;;;;23.32;35.42;94267.16;4999423;28;1204;-76
2023/03/07 03:04:57;;;;;;;;;;;;;;;23.37;35.45;94264.56;4989563;28;1407;-74
2023/03/07 03:07:23;;;;;;;;;;;;;;;23.40;35.66;94247.22;5016135;28;1964;-71
2023/03/07 03:09:48;;;;;;;;;;;;;;;23.34;35.82;94254.34;5015984;28;842;-72
2023/03/07 03:12:13;;;;;;;;;;;;;;;23.33;35.96;94248.16;5015981;28;909;-72
2023/03/07 03:14:38;;;;;;;;;;;;;;;23.35;35.77;94264.00;4998603;28;1319;-75
2023/03/07 03:17:04;;;;;;;;;;;;;;;23.37;35.83;94261.91;5006614;28;1073;-75
2023/03/07 03:19:29;;;;;;;;;;;;;;;23.42;35.87;94256.59;4998927;28;1200;-74
2023/03/07 03:21:55;;;;;;;;;;;;;;;23.43;35.79;94263.59;4998749;28;1595;-75
2023/03/07 03:24:20;;;;;;;;;;;;;;;23.42;35.79;94275.34;5016389;28;830;-74
2023/03/07 03:26:46;;;;;;;;;;;;;;;23.40;35.67;94266.75;5011983;28;1977;-73
2023/03/07 03:29:11;;;;;;;;;;;;;;;23.40;35.72;94257.94;5011116;28;1172;-75
2023/03/07 03:31:36;;;;;;;;;;;;;;;23.40;35.96;94274.00;5016805;28;913;-75
2023/03/07 03:34:04;;;;;;;;;;;;;;;23.41;35.91;94271.06;5016423;28;945;-75
2023/03/07 03:36:29;;;;;;;;;;;;;;;23.40;35.90;94269.44;4998656;28;1316;-73
2023/03/07 03:38:56;;;;;;;;;;;;;;;23.38;36.05;94268.06;4988838;28;1264;-72
2023/03/07 03:41:22;;;;;;;;;;;;;;;23.40;36.13;94264.09;5015721;28;1021;-71
2023/03/07 03:43:47;;;;;;;;;;;;;;;23.42;36.13;94245.09;5015846;28;870;-72
2023/03/07 03:46:13;;;;;;;;;;;;;;;23.43;36.04;94257.44;5015276;28;1902;-72
2023/03/07 03:48:38;;;;;;;;;;;;;;;23.43;35.91;94271.63;5015489;28;886;-71
2023/03/07 03:51:05;;;;;;;;;;;;;;;23.44;35.91;94286.63;4987825;28;1390;-72
2023/03/07 03:53:31;;;;;;;;;;;;;;;23.45;35.91;94285.59;4997873;28;1289;-73
2023/03/07 03:56:00;;;;;;;;;;;;;;;23.42;36.15;94278.03;4998965;28;1213;-74
2023/03/07 03:58:25;;;;;;;;;;;;;;;23.41;36.00;94281.75;5015904;28;870;-74
2023/03/07 04:00:50;;;;;;;;;;;;;;;23.44;36.24;94270.56;4993735;28;1418;-73
2023/03/07 04:03:16;;;;;;;;;;;;;;;23.45;36.13;94285.59;4991157;28;1366;-78
2023/03/07 04:05:41;;;;;;;;;;;;;;;22.78;28.22;94288.03;4998199;28;819;-78
2023/03/07 04:08:06;;;;;;;;;;;;;;;22.44;32.07;94282.53;4995622;28;1914;-74
2023/03/07 04:10:32;;;;;;;;;;;;;;;22.78;33.05;94277.34;4996126;28;997;-74
2023/03/07 04:12:57;;;;;;;;;;;;;;;22.98;32.30;94275.09;4988089;28;1167;-79
2023/03/07 04:15:22;;;;;;;;;;;;;;;22.16;27.04;94281.34;4997404;28;1244;-80
2023/03/07 04:17:47;;;;;;;;;;;;;;;21.61;26.95;94284.34;4996633;28;1208;-82
2023/03/07 04:20:16;;;;;;;;;;;;;;;21.25;26.98;94280.72;4998222;28;1216;-82
2023/03/07 04:22:41;;;;;;;;;;;;;;;20.97;27.33;94277.84;4997342;28;1319;-79
2023/03/07 04:25:07;;;;;;;;;;;;;;;20.82;27.48;94270.25;4988520;28;1429;-82
2023/03/07 04:27:34;;;;;;;;;;;;;;;20.82;26.84;94276.38;4998037;28;1902;-83
2023/03/07 04:29:59;;;;;;;;;;;;;;;20.73;27.18;94267.06;4999144;28;824;-83
2023/03/07 04:32:24;;;;;;;;;;;;;;;20.74;26.95;94276.69;4997699;28;1523;-83
2023/03/07 04:34:53;;;;;;;;;;;;;;;20.70;26.58;94272.84;4998243;28;850;-82
2023/03/07 04:37:21;;;;;;;;;;;;;;;20.68;26.64;94282.91;4994869;28;1115;-82
2023/03/07 04:39:46;;;;;;;;;;;;;;;20.65;26.47;94280.69;4997996;28;1316;-84
2023/03/07 04:42:11;;;;;;;;;;;;;;;20.53;26.92;94287.81;4997167;28;1224;-82
2023/03/07 04:44:37;;;;;;;;;;;;;;;20.54;27.71;94279.59;4997407;28;906;-75
2023/03/07 04:47:02;;;;;;;;;;;;;;;20.53;27.48;94293.16;4985361;28;1958;-75
2023/03/07 04:49:27;;;;;;;;;;;;;;;20.63;26.96;94288.94;4995870;28;1094;-77
2023/03/07 04:51:53;;;;;;;;;;;;;;;20.74;27.07;94282.00;4996303;28;896;-76
2023/03/07 04:54:18;;;;;;;;;;;;;;;20.65;26.88;94291.34;4996406;28;882;-77
2023/03/07 04:56:43;;;;;;;;;;;;;;;20.57;27.34;94289.81;4995117;28;1185;-77
2023/03/07 04:59:09;;;;;;;;;;;;;;;20.51;27.24;94300.50;4985144;28;1197;-75
2023/03/07 05:01:34;;;;;;;;;;;;;;;20.40;26.88;94305.53;5022952;28;1229;-75
2023/03/07 05:03:59;;;;;;;;;;;;;;;20.27;26.93;94308.34;5022321;28;1291;-74
2023/03/07 05:06:25;;;;;;;;;;;;;;;20.17;26.92;94295.53;5034594;28;1902;-75
2023/03/07 05:08:50;;;;;;;;;;;;;;;20.22;29.15;94302.88;5015350;28;1181;-76
2023/03/07 05:11:16;;;;;;;;;;;;;;;20.65;29.43;94307.34;5027095;28;1246;-77
2023/03/07 05:13:41;;;;;;;;;;;;;;;20.74;28.14;94299.88;4997465;28;1460;-75
2023/03/07 05:16:06;;;;;;;;;;;;;;;20.61;27.76;94304.31;5015420;28;791;-79
2023/03/07 05:18:32;;;;;;;;;;;;;;;20.79;29.43;94308.81;5016466;28;928;-75
2023/03/07 05:20:57;;;;;;;;;;;;;;;21.14;29.98;94304.69;4991321;28;1455;-76
2023/03/07 05:23:22;;;;;;;;;;;;;;;21.39;29.87;94316.06;4997206;28;1391;-76
2023/03/07 05:25:48;;;;;;;;;;;;;;;21.54;30.01;94307.63;4998543;28;1181;-77
2023/03/07 05:28:17;;;;;;;;;;;;;;;21.67;29.91;94309.28;5016464;28;1904;-77
2023/03/07 05:30:43;;;;;;;;;;;;;;;21.75;29.74;94299.09;5016636;28;831;-77
2023/03/07 05:33:08;;;;;;;;;;;;;;;21.82;29.87;94303.50;4989740;28;1176;-77
2023/03/07 05:35:34;;;;;;;;;;;;;;;21.86;29.84;94299.31;4998857;28;1202;-77
2023/03/07 05:37:59;;;;;;;;;;;;;;;21.91;29.76;94305.59;5016664;28;815;-77
2023/03/07 05:40:24;;;;;;;;;;;;;;;21.96;29.74;94307.59;5016949;28;871;-76
2023/03/07 05:42:50;;;;;;;;;;;;;;;21.99;29.78;94305.25;4998794;28;1196;-76
2023/03/07 05:45:15;;;;;;;;;;;;;;;22.03;29.70;94310.97;4989220;28;1185;-76
2023/03/07 05:47:40;;;;;;;;;;;;;;;22.06;29.82;94312.34;5016055;28;2025;-76
2023/03/07 05:50:12;;;;;;;;;;;;;;;22.09;29.75;94318.06;4998923;28;1200;-77
2023/03/07 05:52:38;;;;;;;;;;;;;;;22.12;29.88;94317.59;4998148;28;1363;-77
2023/03/07 05:55:04;;;;;;;;;;;;;;;22.15;29.72;94319.00;5006762;28;1065;-77
2023/03/07 05:57:33;;;;;;;;;;;;;;;22.18;29.82;94316.69;4999127;28;1213;-75
2023/03/07 05:59:58;;;;;;;;;;;;;;;22.21;29.78;94328.78;4998638;28;1328;-78
2023/03/07 06:02:23;;;;;;;;;;;;;;;22.25;29.78;94332.59;5016464;28;826;-77
2023/03/07 06:04:49;;;;;;;;;;;;;;;22.27;29.88;94335.06;5014736;28;1334;-77
2023/03/07 06:07:14;;;;;;;;;;;;;;;22.29;29.78;94331.09;4986045;28;1914;-77
2023/03/07 06:09:39;;;;;;;;;;;;;;;22.31;29.56;94330.84;5013533;28;865;-78
2023/03/07 06:12:05;;;;;;;;;;;;;;;22.33;29.65;94334.13;5013180;28;886;-77
2023/03/07 06:14:30;;;;;;;;;;;;;;;22.34;29.67;94330.38;5013123;28;897;-77
2023/03/07 06:16:56;;;;;;;;;;;;;;;22.37;29.74;94330.75;4995503;28;1192;-77
2023/03/07 06:19:21;;;;;;;;;;;;;;;22.38;29.77;94334.22;4985800;28;1318;-76
2023/03/07 06:21:46;;;;;;;;;;;;;;;22.40;29.80;94327.63;4995896;28;1320;-77
2023/03/07 06:24:12;;;;;;;;;;;;;;;22.43;29.76;94329.00;5013281;28;856;-77
2023/03/07 06:26:37;;;;;;;;;;;;;;;22.45;29.71;94332.25;5012884;28;1906;-76
2023/03/07 06:29:02;;;;;;;;;;;;;;;22.49;29.53;94333.41;5006408;28;1066;-77
2023/03/07 06:31:28;;;;;;;;;;;;;;;22.52;29.82;94335.63;5009813;28;1226;-77
2023/03/07 06:33:53;;;;;;;;;;;;;;;22.53;29.52;94328.41;5012983;28;889;-77
2023/03/07 06:36:19;;;;;;;;;;;;;;;22.55;29.48;94334.34;5013030;28;884;-76
2023/03/07 06:38:45;;;;;;;;;;;;;;;22.56;29.49;94339.44;5012849;28;894;-77
2023/03/07 06:41:10;;;;;;;;;;;;;;;22.58;29.67;94332.00;5004598;28;1082;-77
2023/03/07 06:43:36;;;;;;;;;;;;;;;22.61;29.56;94336.88;4998799;28;1311;-77
2023/03/07 06:46:01;;;;;;;;;;;;;;;22.62;29.59;94327.00;5016435;28;1910;-77
2023/03/07 06:48:26;;;;;;;;;;;;;;;22.64;29.31;94339.09;4998687;28;1687;-77
2023/03/07 06:50:52;;;;;;;;;;;;;;;22.66;29.61;94344.22;4998754;28;1339;-76
2023/03/07 06:53:17;;;;;;;;;;;;;;;22.68;29.71;94347.44;5006354;28;1169;-78
2023/03/07 06:55:46;;;;;;;;;;;;;;;22.69;29.64;94343.75;4998600;28;1181;-76
2023/03/07 06:58:11;;;;;;;;;;;;;;;22.71;29.57;94359.53;5016192;28;907;-77
2023/03/07 07:00:37;;;;;;;;;;;;;;;22.74;29.57;94353.72;5016340;28;901;-77
2023/03/07 07:03:02;;;;;;;;;;;;;;;22.73;29.61;94355.56;5011224;28;1300;-77
2023/03/07 07:05:27;;;;;;;;;;;;;;;22.75;29.57;94352.69;5011072;28;1231;-77
2023/03/07 07:07:52;;;;;;;;;;;;;;;22.76;29.42;94355.09;5016068;28;1971;-76
2023/03/07 07:10:18;;;;;;;;;;;;;;;22.77;29.44;94356.75;5016353;28;877;-77
2023/03/07 07:12:43;;;;;;;;;;;;;;;22.80;29.39;94355.47;4998446;28;1273;-76
2023/03/07 07:15:09;;;;;;;;;;;;;;;22.80;29.67;94350.13;4984916;28;1200;-77
2023/03/07 07:17:34;;;;;;;;;;;;;;;22.82;29.51;94356.03;4996316;28;827;-76
2023/03/07 07:20:00;;;;;;;;;;;;;;;22.81;29.55;94349.06;4996539;28;947;-76
2023/03/07 07:22:26;;;;;;;;;;;;;;;22.83;29.68;94344.31;4996279;28;878;-76
2023/03/07 07:24:51;;;;;;;;;;;;;;;22.83;29.54;94349.66;4996150;28;973;-76
2023/03/07 07:27:16;;;;;;;;;;;;;;;22.83;29.37;94345.09;4986013;28;1895;-77
2023/03/07 07:29:41;;;;;;;;;;;;;;;22.84;29.54;94346.72;4996111;28;902;-77
2023/03/07 07:32:07;;;;;;;;;;;;;;;22.85;29.45;94343.03;4994885;28;1264;-77
2023/03/07 07:34:32;;;;;;;;;;;;;;;22.86;29.52;94343.81;4978407;28;1272;-77
2023/03/07 07:36:57;;;;;;;;;;;;;;;22.86;29.58;94344.63;4991192;28;1076;-78
2023/03/07 07:39:23;;;;;;;;;;;;;;;22.87;29.35;94348.13;4973358;28;1216;-76
2023/03/07 07:41:48;;;;;;;;;;;;;;;22.86;29.44;94349.19;4996205;28;945;-77
2023/03/07 07:44:14;;;;;;;;;;;;;;;22.87;29.44;94346.25;4978398;28;1200;-77
2023/03/07 07:46:39;;;;;;;;;;;;;;;22.88;29.50;94352.41;4996109;28;1902;-77
2023/03/07 07:49:04;;;;;;;;;;;;;;;22.89;29.49;94346.03;4968221;28;1321;-77
2023/03/07 07:51:29;;;;;;;;;;;;;;;22.89;29.52;94351.38;4977644;28;1240;-78
2023/03/07 07:53:55;;;;;;;;;;;;;;;22.88;29.43;94350.56;4995228;28;815;-77
2023/03/07 07:56:20;;;;;;;;;;;;;;;22.89;29.58;94354.06;4995683;28;976;-78
2023/03/07 07:58:46;;;;;;;;;;;;;;;22.90;29.62;94361.03;4995963;28;992;-78
2023/03/07 08:01:16;;;;;;;;;;;;;;;22.91;29.51;94357.31;4968315;28;1234;-78
2023/03/07 08:03:42;;;;;;;;;;;;;;;22.89;29.62;94359.41;4977714;28;1339;-78
2023/03/07 08:06:07;;;;;;;;;;;;;;;22.92;29.61;94358.94;4978214;28;1910;-77
2023/03/07 08:08:33;;;;;;;;;;;;;;;22.94;29.58;94354.16;4995580;28;894;-77
2023/03/07 08:10:58;;;;;;;;;;;;;;;22.94;29.42;94353.31;4973475;28;1301;-78
2023/03/07 08:13:23;;;;;;;;;;;;;;;22.94;29.71;94351.50;4990219;28;1314;-75
2023/03/07 08:15:49;;;;;;;;;;;;;;;22.94;29.45;94359.50;4995433;28;871;-76
2023/03/07 08:18:14;;;;;;;;;;;;;;;22.94;29.49;94366.69;4977674;28;1301;-76
2023/03/07 08:20:40;;;;;;;;;;;;;;;22.94;29.72;94362.19;4995113;28;909;-76
2023/03/07 08:23:05;;;;;;;;;;;;;;;22.96;29.42;94357.44;4967885;28;1520;-76
2023/03/07 08:25:31;;;;;;;;;;;;;;;22.96;29.59;94351.28;4994952;28;1282;-76
2023/03/07 08:27:56;;;;;;;;;;;;;;;22.96;29.44;94360.09;4977590;28;1903;-76
2023/03/07 08:30:26;;;;;;;;;;;;;;;22.98;29.59;94349.97;4994934;28;930;-76
2023/03/07 08:32:53;;;;;;;;;;;;;;;22.99;29.59;94356.94;4994954;28;850;-77
2023/03/07 08:35:18;;;;;;;;;;;;;;;23.00;29.58;94352.44;4985135;28;1095;-76
2023/03/07 08:37:44;;;;;;;;;;;;;;;23.01;29.49;94354.06;4994930;28;869;-77
2023/03/07 08:40:10;;;;;;;;;;;;;;;22.99;29.64;94356.94;4977426;28;1348;-77
2023/03/07 08:42:35;;;;;;;;;;;;;;;22.97;29.42;94353.72;4977417;28;1173;-76
2023/03/07 08:45:00;;;;;;;;;;;;;;;22.98;29.58;94355.34;4989884;28;975;-74
2023/03/07 08:47:26;;;;;;;;;;;;;;;23.00;29.43;94352.44;4989691;28;1949;-76
2023/03/07 08:49:51;;;;;;;;;;;;;;;23.01;29.50;94354.06;4994997;28;897;-75
2023/03/07 08:52:17;;;;;;;;;;;;;;;23.00;29.49;94350.56;4994621;28;898;-74
2023/03/07 08:54:42;;;;;;;;;;;;;;;23.00;29.41;94350.56;4994528;28;938;-78
2023/03/07 08:57:07;;;;;;;;;;;;;;;23.01;29.50;94352.19;4983278;28;1166;-76
2023/03/07 08:59:33;;;;;;;;;;;;;;;23.03;29.52;94351.97;4994263;28;989;-76
2023/03/07 09:01:58;;;;;;;;;;;;;;;23.03;29.53;94357.31;4993331;28;1199;-77
2023/03/07 09:04:23;;;;;;;;;;;;;;;23.02;29.52;94348.44;4993904;28;1178;-77
2023/03/07 09:06:48;;;;;;;;;;;;;;;23.04;29.46;94345.56;4994346;28;1899;-76
2023/03/07 09:09:14;;;;;;;;;;;;;;;23.04;29.51;94342.88;4984577;28;1077;-76
2023/03/07 09:11:39;;;;;;;;;;;;;;;23.05;29.61;94342.66;4993037;28;1268;-76
2023/03/07 09:14:05;;;;;;;;;;;;;;;23.05;29.53;94344.50;4993108;28;1325;-75
2023/03/07 09:16:30;;;;;;;;;;;;;;;23.05;29.58;94342.66;4993194;28;1200;-76
2023/03/07 09:18:55;;;;;;;;;;;;;;;23.06;29.50;94338.91;4989079;28;1240;-75
2023/03/07 09:21:20;;;;;;;;;;;;;;;23.06;29.51;94332.75;4987039;28;1281;-77
2023/03/07 09:23:46;;;;;;;;;;;;;;;23.06;29.51;94333.56;4992734;28;1209;-76
2023/03/07 09:26:12;;;;;;;;;;;;;;;23.06;29.52;94338.09;4994602;28;1953;-76
2023/03/07 09:28:37;;;;;;;;;;;;;;;23.06;29.63;94332.75;4993129;28;1209;-76
2023/03/07 09:31:06;;;;;;;;;;;;;;;23.06;29.70;94328.22;4983756;28;1185;-76
2023/03/07 09:33:32;;;;;;;;;;;;;;;23.06;29.68;94328.22;4992222;28;1185;-76
2023/03/07 09:35:57;;;;;;;;;;;;;;;23.06;29.53;94328.22;4996156;28;1295;-77
2023/03/07 09:38:23;;;;;;;;;;;;;;;23.07;29.66;94319.13;4996222;28;1341;-76
2023/03/07 09:40:48;;;;;;;;;;;;;;;23.07;29.70;94311.09;4996172;28;1173;-76
2023/03/07 09:43:21;;;;;;;;;;;;;;;23.08;29.64;94320.78;5003934;28;1041;-77
2023/03/07 09:45:52;;;;;;;;;;;;;;;23.08;29.67;94310.06;5013583;28;849;-77
2023/03/07 09:48:17;;;;;;;;;;;;;;;23.07;29.67;94313.78;4996295;28;1906;-77
2023/03/07 09:50:52;;;;;;;;;;;;;;;23.08;29.69;94312.75;4996199;28;1332;-76
2023/03/07 09:53:22;;;;;;;;;;;;;;;23.08;29.73;94315.44;5008633;28;1094;-75
2023/03/07 09:55:50;;;;;;;;;;;;;;;23.08;29.67;94315.44;4990637;28;1248;-76
2023/03/07 09:58:19;;;;;;;;;;;;;;;23.09;29.78;94311.69;5013474;28;885;-76
2023/03/07 10:00:45;;;;;;;;;;;;;;;23.10;29.63;94304.47;4996194;28;1171;-77
2023/03/07 10:03:31;;;;;;;;;;;;;;;23.11;29.88;94300.75;5013407;28;1333;-76
2023/03/07 10:06:01;;;;;;;;;;;;;;;23.12;29.77;94302.38;4972825;28;1465;-77
2023/03/07 10:08:30;;;;;;;;;;;;;;;23.11;29.71;94298.91;5013364;28;1910;-77
2023/03/07 10:11:08;;;;;;;;;;;;;;;23.12;29.69;94289.81;5013370;28;929;-76
2023/03/07 10:13:47;;;;;;;;;;;;;;;23.12;29.61;94287.13;4995700;28;1180;-76
2023/03/07 10:16:24;;;;;;;;;;;;;;;23.11;29.67;94277.50;5010656;28;1112;-76
2023/03/07 10:19:04;;;;;;;;;;;;;;;23.12;29.73;94284.47;4997128;28;1562;-76
2023/03/07 10:21:39;;;;;;;;;;;;;;;23.13;29.36;94278.03;4999336;28;1448;-76
2023/03/07 10:24:04;;;;;;;;;;;;;;;23.14;29.72;94270.84;5017208;28;912;-76
2023/03/07 10:26:36;;;;;;;;;;;;;;;23.13;29.69;94267.34;4999356;28;1959;-77
2023/03/07 10:29:10;;;;;;;;;;;;;;;23.13;29.63;94259.31;5007093;28;1069;-77
2023/03/07 10:31:38;;;;;;;;;;;;;;;23.13;29.74;94262.00;5016955;28;889;-76
2023/03/07 10:34:13;;;;;;;;;;;;;;;23.13;29.56;94256.63;4999310;28;1446;-75
2023/03/07 10:36:45;;;;;;;;;;;;;;;23.16;29.74;94259.91;5017205;28;830;-76
2023/03/07 10:39:33;;;;;;;;;;;;;;;22.99;29.78;94222.41;5008052;28;1024;-75
2023/03/07 10:41:58;;;;;;;;;;;;;;;23.17;29.67;94253.47;5017050;28;867;-76
2023/03/07 10:44:27;;;;;;;;;;;;;;;23.17;29.55;94250.81;5016543;28;906;-76
2023/03/07 10:46:56;;;;;;;;;;;;;;;23.18;29.51;94249.78;5016697;28;1898;-76
2023/03/07 10:49:38;;;;;;;;;;;;;;;23.16;29.51;94239.28;4999138;28;1359;-76
2023/03/07 10:52:05;;;;;;;;;;;;;;;23.18;29.42;94236.41;4989037;28;1326;-75
2023/03/07 10:54:35;;;;;;;;;;;;;;;23.18;29.70;94228.38;4998691;28;1173;-75
2023/03/07 10:57:07;;;;;;;;;;;;;;;23.18;29.57;94225.69;5016449;28;905;-76
2023/03/07 10:59:32;;;;;;;;;;;;;;;23.18;29.70;94217.66;4999083;28;1546;-76
2023/03/07 11:01:59;;;;;;;;;;;;;;;23.20;29.71;94215.56;4989197;28;1196;-76
2023/03/07 11:04:26;;;;;;;;;;;;;;;23.19;29.45;94212.06;5016042;28;1275;-75
2023/03/07 11:06:59;;;;;;;;;;;;;;;23.20;29.71;94202.19;5016146;28;1910;-75
2023/03/07 11:09:24;;;;;;;;;;;;;;;23.20;29.76;94194.16;4998528;28;1291;-76
2023/03/07 11:11:57;;;;;;;;;;;;;;;23.19;29.59;94184.50;5015811;28;878;-76
2023/03/07 11:14:23;;;;;;;;;;;;;;;23.20;29.71;94183.47;5006120;28;1102;-77
2023/03/07 11:16:56;;;;;;;;;;;;;;;23.21;29.72;94177.84;5016320;28;866;-76
2023/03/07 11:19:33;;;;;;;;;;;;;;;23.22;29.70;94178.66;5015959;28;940;-74
2023/03/07 11:21:59;;;;;;;;;;;;;;;23.22;29.72;94175.97;4998550;28;1479;-76
2023/03/07 11:24:27;;;;;;;;;;;;;;;23.23;29.68;94166.91;5011183;28;1025;-76
2023/03/07 11:26:53;;;;;;;;;;;;;;;23.23;29.56;94169.59;5010468;28;1998;-76
2023/03/07 11:29:18;;;;;;;;;;;;;;;23.22;29.51;94160.72;5015983;28;795;-76
2023/03/07 11:31:43;;;;;;;;;;;;;;;23.23;29.70;94157.03;5015640;28;1113;-76
2023/03/07 11:34:12;;;;;;;;;;;;;;;23.23;29.73;94158.91;5015843;28;963;-75
2023/03/07 11:36:39;;;;;;;;;;;;;;;23.22;29.50;94151.91;5005637;28;1063;-76
2023/03/07 11:39:04;;;;;;;;;;;;;;;23.24;29.47;94150.59;5015957;28;838;-76
2023/03/07 11:41:36;;;;;;;;;;;;;;;23.23;29.61;94148.19;4998045;28;1236;-75
2023/03/07 11:44:20;;;;;;;;;;;;;;;23.22;29.56;94139.31;5015408;28;882;-76
2023/03/07 11:46:51;;;;;;;;;;;;;;;23.26;29.53;94145.84;5010796;28;1906;-76
2023/03/07 11:49:23;;;;;;;;;;;;;;;23.27;29.67;94135.94;5010583;28;1263;-76
2023/03/07 11:52:16;;;;;;;;;;;;;;;23.26;29.61;94139.69;4998122;28;1310;-75
2023/03/07 11:54:42;;;;;;;;;;;;;;;23.26;29.61;94139.69;4997651;28;1168;-76
2023/03/07 11:57:16;;;;;;;;;;;;;;;23.26;29.62;94135.13;5015686;28;865;-75
2023/03/07 11:59:41;;;;;;;;;;;;;;;23.26;29.50;94140.47;4987626;28;1208;-76
2023/03/07 12:02:25;;;;;;;;;;;;;;;23.26;29.53;94134.31;4997434;28;1161;-76
2023/03/07 12:05:10;;;;;;;;;;;;;;;23.26;29.64;94128.97;5015196;28;1320;-76
2023/03/07 12:07:54;;;;;;;;;;;;;;;23.25;29.49;94133.50;5015139;28;1969;-76
2023/03/07 12:10:38;;;;;;;;;;;;;;;23.24;29.79;94126.53;5005423;28;1124;-75
2023/03/07 12:13:04;;;;;;;;;;;;;;;23.25;29.64;94130.84;4997358;28;1227;-76
2023/03/07 12:15:39;;;;;;;;;;;;;;;23.24;29.58;94118.50;4997362;28;1205;-76
2023/03/07 12:18:07;;;;;;;;;;;;;;;23.27;29.78;94119.88;5014916;28;854;-76
2023/03/07 12:20:45;;;;;;;;;;;;;;;23.27;29.68;94119.88;4997117;28;1248;-77
2023/03/07 12:23:32;;;;;;;;;;;;;;;23.27;29.64;94114.53;4990450;28;1200;-78
2023/03/07 12:26:18;;;;;;;;;;;;;;;23.26;29.56;94112.91;4997027;28;1314;-75
2023/03/07 12:28:53;;;;;;;;;;;;;;;23.26;29.56;94099.53;4974463;28;1301;-76
2023/03/07 12:31:36;;;;;;;;;;;;;;;23.26;29.60;94104.88;4997007;28;1575;-77
2023/03/07 12:34:01;;;;;;;;;;;;;;;23.26;29.54;94099.53;4987117;28;1348;-76
2023/03/07 12:36:33;;;;;;;;;;;;;;;23.27;29.64;94093.94;5014817;28;827;-77
2023/03/07 12:38:58;;;;;;;;;;;;;;;23.27;29.67;94098.47;5013964;28;827;-76
2023/03/07 12:41:50;;;;;;;;;;;;;;;23.27;29.80;94096.59;4996973;28;1192;-77
2023/03/07 12:44:24;;;;;;;;;;;;;;;23.25;29.54;94090.69;4983274;28;1175;-77
2023/03/07 12:46:56;;;;;;;;;;;;;;;23.26;29.68;94099.53;4996791;28;1954;-77
2023/03/07 12:49:27;;;;;;;;;;;;;;;23.28;29.58;94100.09;4997206;28;1236;-77
2023/03/07 12:51:56;;;;;;;;;;;;;;;23.27;29.48;94104.63;4996613;28;1207;-76
2023/03/07 12:54:27;;;;;;;;;;;;;;;23.28;29.74;94106.28;5014216;28;1013;-76
2023/03/07 12:57:13;;;;;;;;;;;;;;;23.28;29.72;94097.41;5004360;28;975;-77
2023/03/07 12:59:40;;;;;;;;;;;;;;;23.27;29.80;94095.78;4995924;28;1808;-77
2023/03/07 13:02:15;;;;;;;;;;;;;;;23.28;29.71;94090.22;4997065;28;1371;-77